createdAt,value
2022-10-26T00:01:55.135Z,9.40
2022-10-26T00:04:26.203Z,9.40
2022-10-26T00:06:59.157Z,9.40
2022-10-26T00:09:30.237Z,9.40
2022-10-26T00:12:01.297Z,9.30
2022-10-26T00:14:34.249Z,9.30
2022-10-26T00:17:05.104Z,9.30
2022-10-26T00:19:39.664Z,9.20
2022-10-26T00:22:12.677Z,9.10
2022-10-26T00:24:43.665Z,9.10
2022-10-26T00:27:14.702Z,9.10
2022-10-26T00:29:45.606Z,9.00
2022-10-26T00:32:16.112Z,9.00
2022-10-26T00:34:46.805Z,9.00
2022-10-26T00:37:20.069Z,8.90
2022-10-26T00:39:51.584Z,8.90
2022-10-26T00:42:25.223Z,8.90
2022-10-26T00:45:04.831Z,8.90
2022-10-26T00:47:44.281Z,8.80
2022-10-26T00:50:21.728Z,8.80
2022-10-26T00:52:57.185Z,8.80
2022-10-26T00:55:35.457Z,8.80
2022-10-26T00:58:08.714Z,8.80
2022-10-26T01:00:39.638Z,8.70
2022-10-26T01:03:11.946Z,8.70
2022-10-26T01:05:46.290Z,8.60
2022-10-26T01:08:20.116Z,8.70
2022-10-26T01:10:51.597Z,8.70
2022-10-26T01:13:23.361Z,8.70
2022-10-26T01:16:05.277Z,8.70
2022-10-26T01:18:45.210Z,8.70
2022-10-26T01:21:48.376Z,8.70
2022-10-26T01:24:55.249Z,8.70
2022-10-26T01:27:32.512Z,8.60
2022-10-26T01:30:33.479Z,8.60
2022-10-26T01:33:24.102Z,8.60
2022-10-26T01:36:03.475Z,8.50
2022-10-26T01:38:42.842Z,8.50
2022-10-26T01:41:21.793Z,8.50
2022-10-26T01:43:57.519Z,8.50
2022-10-26T01:46:33.130Z,8.40
2022-10-26T01:49:09.900Z,8.40
2022-10-26T01:51:43.613Z,8.40
2022-10-26T01:54:14.755Z,8.30
2022-10-26T01:56:48.216Z,8.30
2022-10-26T01:59:41.185Z,8.30
2022-10-26T02:02:48.147Z,8.30
2022-10-26T02:05:42.426Z,8.30
2022-10-26T02:08:30.316Z,8.20
2022-10-26T02:11:14.110Z,8.20
2022-10-26T02:13:50.461Z,8.20
2022-10-26T02:16:27.534Z,8.20
2022-10-26T02:19:08.568Z,8.10
2022-10-26T02:21:45.177Z,8.00
2022-10-26T02:24:19.822Z,7.90
2022-10-26T02:26:54.450Z,8.00
2022-10-26T02:29:26.695Z,8.00
2022-10-26T02:31:59.981Z,8.00
2022-10-26T02:34:36.499Z,8.00
2022-10-26T02:37:09.307Z,7.90
2022-10-26T02:39:42.611Z,7.90
2022-10-26T02:42:14.741Z,7.90
2022-10-26T02:44:49.978Z,7.80
2022-10-26T02:47:22.718Z,7.80
2022-10-26T02:49:57.330Z,7.80
2022-10-26T02:52:34.326Z,7.80
2022-10-26T02:55:12.369Z,7.80
2022-10-26T02:57:45.436Z,7.80
2022-10-26T03:00:19.133Z,7.70
2022-10-26T03:02:55.833Z,7.80
2022-10-26T03:05:34.524Z,7.80
2022-10-26T03:08:06.134Z,7.80
2022-10-26T03:10:39.108Z,7.80
2022-10-26T03:13:10.460Z,7.80
2022-10-26T03:15:41.651Z,7.80
2022-10-26T03:18:13.329Z,7.80
2022-10-26T03:20:48.244Z,7.80
2022-10-26T03:23:19.749Z,7.80
2022-10-26T03:25:50.865Z,7.80
2022-10-26T03:28:21.887Z,7.80
2022-10-26T03:30:53.160Z,7.70
2022-10-26T03:33:27.323Z,7.60
2022-10-26T03:36:02.792Z,7.60
2022-10-26T03:38:34.029Z,7.60
2022-10-26T03:41:05.462Z,7.50
2022-10-26T03:43:36.761Z,7.50
2022-10-26T03:46:07.789Z,7.50
2022-10-26T03:48:39.455Z,7.50
2022-10-26T03:51:12.841Z,7.50
2022-10-26T03:53:44.543Z,7.50
2022-10-26T03:56:16.051Z,7.40
2022-10-26T03:58:47.069Z,7.40
2022-10-26T04:01:18.316Z,7.40
2022-10-26T04:03:49.672Z,7.40
2022-10-26T04:06:22.220Z,7.50
2022-10-26T04:08:54.590Z,7.50
2022-10-26T04:11:28.066Z,7.50
2022-10-26T04:14:00.586Z,7.50
2022-10-26T04:16:33.446Z,7.50
2022-10-26T04:19:06.790Z,7.50
2022-10-26T04:21:40.295Z,7.40
2022-10-26T04:24:13.530Z,7.50
2022-10-26T04:26:46.536Z,7.40
2022-10-26T04:29:17.664Z,7.40
2022-10-26T04:31:48.764Z,7.50
2022-10-26T04:34:19.912Z,7.50
2022-10-26T04:36:53.348Z,7.50
2022-10-26T04:39:24.905Z,7.50
2022-10-26T04:41:57.425Z,7.50
2022-10-26T04:44:28.504Z,7.50
2022-10-26T04:47:00.809Z,7.50
2022-10-26T04:49:31.824Z,7.50
2022-10-26T04:52:04.787Z,7.50
2022-10-26T04:54:35.976Z,7.50
2022-10-26T04:57:07.138Z,7.50
2022-10-26T04:59:39.002Z,7.50
2022-10-26T05:02:10.139Z,7.50
2022-10-26T05:04:41.350Z,7.40
2022-10-26T05:07:14.946Z,7.50
2022-10-26T05:09:45.973Z,7.40
2022-10-26T05:12:17.071Z,7.40
2022-10-26T05:14:48.592Z,7.40
2022-10-26T05:17:19.704Z,7.50
2022-10-26T05:19:56.310Z,7.40
2022-10-26T05:22:29.602Z,7.40
2022-10-26T05:25:00.754Z,7.40
2022-10-26T05:27:32.671Z,7.40
2022-10-26T05:30:03.858Z,7.40
2022-10-26T05:32:35.015Z,7.40
2022-10-26T05:35:06.261Z,7.40
2022-10-26T05:37:40.269Z,7.30
2022-10-26T05:40:12.530Z,7.40
2022-10-26T05:42:43.382Z,7.30
2022-10-26T05:45:14.646Z,7.30
2022-10-26T05:47:46.598Z,7.30
2022-10-26T05:50:17.640Z,7.30
2022-10-26T05:52:52.036Z,7.30
2022-10-26T05:55:23.866Z,7.30
2022-10-26T05:57:54.936Z,7.30
2022-10-26T06:00:27.463Z,7.30
2022-10-26T06:03:11.744Z,7.30
2022-10-26T06:05:54.948Z,7.30
2022-10-26T06:08:31.730Z,7.20
2022-10-26T06:11:03.976Z,7.20
2022-10-26T06:13:36.136Z,7.20
2022-10-26T06:16:32.881Z,7.20
2022-10-26T06:19:16.243Z,7.20
2022-10-26T06:22:00.919Z,7.20
2022-10-26T06:24:40.924Z,7.20
2022-10-26T06:27:26.295Z,7.20
2022-10-26T06:30:04.518Z,7.20
2022-10-26T06:32:36.176Z,7.10
2022-10-26T06:35:22.919Z,7.10
2022-10-26T06:37:56.370Z,7.10
2022-10-26T06:40:29.954Z,7.10
2022-10-26T06:43:14.959Z,7.10
2022-10-26T06:45:52.171Z,7.10
2022-10-26T06:48:32.586Z,7.10
2022-10-26T06:51:04.946Z,7.00
2022-10-26T06:53:43.082Z,7.00
2022-10-26T06:56:18.746Z,7.00
2022-10-26T06:58:52.785Z,7.00
2022-10-26T07:01:24.934Z,7.00
2022-10-26T07:03:58.080Z,7.00
2022-10-26T07:06:29.789Z,7.00
2022-10-26T07:09:01.278Z,7.00
2022-10-26T07:11:36.731Z,7.00
2022-10-26T07:14:08.297Z,7.00
2022-10-26T07:16:40.021Z,7.00
2022-10-26T07:19:11.297Z,7.00
2022-10-26T07:21:42.720Z,7.00
2022-10-26T07:24:14.538Z,7.10
2022-10-26T07:26:48.247Z,7.10
2022-10-26T07:29:19.819Z,7.10
2022-10-26T07:31:51.381Z,7.00
2022-10-26T07:34:23.065Z,7.00
2022-10-26T07:36:54.956Z,7.00
2022-10-26T07:39:26.483Z,7.00
2022-10-26T07:41:59.592Z,7.00
2022-10-26T07:44:31.707Z,7.00
2022-10-26T07:47:02.828Z,7.00
2022-10-26T07:49:34.043Z,7.00
2022-10-26T07:52:05.122Z,7.00
2022-10-26T07:54:36.481Z,7.00
2022-10-26T07:57:09.667Z,7.00
2022-10-26T07:59:40.679Z,7.00
2022-10-26T08:02:13.368Z,7.00
2022-10-26T08:04:44.903Z,7.00
2022-10-26T08:07:16.148Z,7.00
2022-10-26T08:09:46.991Z,7.00
2022-10-26T08:12:23.078Z,7.00
2022-10-26T08:14:54.203Z,7.00
2022-10-26T08:17:25.296Z,7.00
2022-10-26T08:19:56.433Z,7.10
2022-10-26T08:22:27.488Z,7.00
2022-10-26T08:24:58.163Z,7.00
2022-10-26T08:27:31.048Z,7.00
2022-10-26T08:30:01.905Z,7.00
2022-10-26T08:32:34.024Z,7.00
2022-10-26T08:35:05.098Z,7.00
2022-10-26T08:37:36.142Z,6.90
2022-10-26T08:40:08.068Z,7.00
2022-10-26T08:42:46.578Z,7.00
2022-10-26T08:45:33.002Z,7.10
2022-10-26T08:48:15.073Z,7.00
2022-10-26T08:50:49.162Z,7.10
2022-10-26T08:53:24.738Z,7.10
2022-10-26T08:56:00.300Z,7.00
2022-10-26T08:58:39.434Z,7.10
2022-10-26T09:01:12.934Z,7.00
2022-10-26T09:03:44.442Z,7.00
2022-10-26T09:06:27.284Z,7.10
2022-10-26T09:09:07.902Z,7.10
2022-10-26T09:11:55.313Z,7.10
2022-10-26T09:14:39.924Z,7.10
2022-10-26T09:17:20.279Z,7.10
2022-10-26T09:20:13.611Z,7.10
2022-10-26T09:22:53.812Z,7.10
2022-10-26T09:25:26.193Z,7.10
2022-10-26T09:28:00.608Z,7.00
2022-10-26T09:30:33.894Z,7.00
2022-10-26T09:33:15.936Z,7.00
2022-10-26T09:35:51.773Z,7.00
2022-10-26T09:38:27.657Z,7.00
2022-10-26T09:41:02.817Z,7.00
2022-10-26T09:43:40.891Z,7.00
2022-10-26T09:46:21.097Z,7.00
2022-10-26T09:48:55.366Z,7.00
2022-10-26T09:51:28.120Z,7.00
2022-10-26T09:54:02.046Z,7.00
2022-10-26T09:56:33.669Z,7.00
2022-10-26T09:59:08.540Z,7.00
2022-10-26T10:01:42.630Z,7.00
2022-10-26T10:04:27.454Z,7.00
2022-10-26T10:07:19.151Z,7.00
2022-10-26T10:10:17.863Z,7.00
2022-10-26T10:12:52.065Z,6.90
2022-10-26T10:15:24.653Z,6.90
2022-10-26T10:17:59.314Z,7.00
2022-10-26T10:20:35.044Z,6.90
2022-10-26T10:23:06.877Z,6.90
2022-10-26T10:25:40.119Z,6.90
2022-10-26T10:28:24.853Z,6.90
2022-10-26T10:31:00.367Z,6.90
2022-10-26T10:33:53.925Z,6.80
2022-10-26T10:36:27.731Z,6.90
2022-10-26T10:38:59.509Z,6.90
2022-10-26T10:41:34.061Z,6.90
2022-10-26T10:44:10.049Z,6.90
2022-10-26T10:46:41.686Z,6.80
2022-10-26T10:49:24.657Z,6.90
2022-10-26T10:51:56.289Z,6.90
2022-10-26T10:54:32.811Z,6.90
2022-10-26T10:57:14.755Z,7.00
2022-10-26T11:00:04.271Z,6.90
2022-10-26T11:03:04.379Z,6.90
2022-10-26T11:05:50.448Z,6.80
2022-10-26T11:08:25.938Z,6.90
2022-10-26T11:11:02.227Z,6.90
2022-10-26T11:13:38.769Z,6.90
2022-10-26T11:16:16.713Z,6.90
2022-10-26T11:18:51.787Z,6.90
2022-10-26T11:21:31.599Z,6.90
2022-10-26T11:24:14.238Z,6.90
2022-10-26T11:26:53.449Z,6.90
2022-10-26T11:29:39.408Z,7.00
2022-10-26T11:32:19.440Z,7.00
2022-10-26T11:34:59.870Z,7.00
2022-10-26T11:40:27.669Z,7.00
2022-10-26T11:43:07.038Z,7.00
2022-10-26T11:45:42.199Z,7.00
2022-10-26T11:48:23.287Z,7.00
2022-10-26T11:50:56.943Z,7.00
2022-10-26T11:53:34.413Z,7.00
2022-10-26T11:56:08.421Z,7.00
2022-10-26T11:58:40.449Z,7.00
2022-10-26T12:01:13.902Z,7.10
2022-10-26T12:03:49.497Z,7.10
2022-10-26T12:06:24.090Z,7.20
2022-10-26T12:09:04.575Z,7.20
2022-10-26T12:11:43.526Z,7.30
2022-10-26T12:14:24.261Z,7.30
2022-10-26T12:17:03.925Z,7.30
2022-10-26T12:19:47.005Z,7.30
2022-10-26T12:22:20.578Z,7.30
2022-10-26T12:25:14.799Z,7.40
2022-10-26T12:28:01.382Z,7.40
2022-10-26T12:30:34.823Z,7.40
2022-10-26T12:33:13.961Z,7.40
2022-10-26T12:35:47.476Z,7.40
2022-10-26T12:39:08.349Z,7.40
2022-10-26T12:41:43.715Z,7.50
2022-10-26T12:44:36.088Z,7.40
2022-10-26T12:47:08.594Z,7.40
2022-10-26T12:50:03.528Z,7.50
2022-10-26T12:52:46.008Z,7.50
2022-10-26T12:56:04.124Z,7.50
2022-10-26T12:59:10.408Z,7.50
2022-10-26T13:02:00.119Z,7.50
2022-10-26T13:04:54.409Z,7.60
2022-10-26T13:07:29.120Z,7.60
2022-10-26T13:10:05.313Z,7.60
2022-10-26T13:12:50.447Z,7.60
2022-10-26T13:15:30.681Z,7.50
2022-10-26T13:18:13.866Z,7.50
2022-10-26T13:20:57.195Z,7.40
2022-10-26T13:23:30.338Z,7.50
2022-10-26T13:26:10.390Z,7.50
2022-10-26T13:28:53.515Z,7.50
2022-10-26T13:32:01.430Z,7.50
2022-10-26T13:34:36.285Z,7.50
2022-10-26T13:37:21.217Z,7.50
2022-10-26T13:39:56.904Z,7.50
2022-10-26T13:42:30.926Z,7.50
2022-10-26T13:45:08.270Z,7.50
2022-10-26T13:47:46.962Z,7.30
2022-10-26T13:50:23.023Z,7.30
2022-10-26T13:52:58.173Z,7.30
2022-10-26T13:55:33.669Z,7.30
2022-10-26T13:58:24.781Z,7.30
2022-10-26T14:01:14.659Z,7.30
2022-10-26T14:03:46.767Z,7.30
2022-10-26T14:06:24.473Z,7.20
2022-10-26T14:08:57.974Z,7.20
2022-10-26T14:11:37.923Z,7.20
2022-10-26T14:14:09.241Z,7.20
2022-10-26T14:16:41.366Z,7.20
2022-10-26T14:19:19.407Z,7.20
2022-10-26T14:21:53.626Z,7.20
2022-10-26T14:24:45.240Z,7.30
2022-10-26T14:27:19.439Z,7.30
2022-10-26T14:30:16.694Z,7.30
2022-10-26T14:32:41.788Z,7.30
2022-10-26T14:35:15.987Z,7.30
2022-10-26T14:37:54.091Z,7.30
2022-10-26T14:40:28.775Z,7.30
2022-10-26T14:43:01.425Z,7.20
2022-10-26T14:45:50.064Z,7.10
2022-10-26T14:48:27.337Z,7.10
2022-10-26T14:51:06.729Z,7.20
2022-10-26T14:53:42.588Z,7.20
2022-10-26T14:56:34.047Z,7.20
2022-10-26T14:59:14.476Z,7.20
2022-10-26T15:01:55.179Z,7.30
2022-10-26T15:04:33.521Z,7.30
2022-10-26T15:07:20.832Z,7.30
2022-10-26T15:09:55.100Z,7.30
2022-10-26T15:12:33.154Z,7.30
2022-10-26T15:17:57.419Z,7.30
2022-10-26T15:20:31.053Z,7.40
2022-10-26T15:23:04.451Z,7.40
2022-10-26T15:25:38.042Z,7.40
2022-10-26T15:28:23.387Z,7.50
2022-10-26T15:31:05.658Z,7.50
2022-10-26T15:33:37.318Z,7.60
2022-10-26T15:36:19.140Z,7.60
2022-10-26T15:38:51.118Z,7.70
2022-10-26T15:41:29.696Z,7.80
2022-10-26T15:44:02.774Z,7.70
2022-10-26T15:46:35.878Z,7.60
2022-10-26T15:49:08.447Z,7.70
2022-10-26T15:51:41.225Z,7.70
2022-10-26T15:54:13.573Z,7.70
2022-10-26T15:56:47.324Z,7.80
2022-10-26T15:59:20.143Z,7.70
2022-10-26T16:01:53.372Z,7.80
2022-10-26T16:04:24.548Z,7.80
2022-10-26T16:06:58.068Z,7.90
2022-10-26T16:09:28.877Z,7.70
2022-10-26T16:12:02.057Z,7.80
2022-10-26T16:14:33.597Z,7.80
2022-10-26T16:17:05.402Z,7.80
2022-10-26T16:19:37.764Z,7.90
2022-10-26T16:22:09.271Z,7.90
2022-10-26T16:24:40.699Z,7.90
2022-10-26T16:27:13.564Z,8.10
2022-10-26T16:29:44.431Z,8.30
2022-10-26T16:32:15.574Z,8.40
2022-10-26T16:34:46.606Z,8.40
2022-10-26T16:37:18.486Z,8.40
2022-10-26T16:39:49.896Z,8.40
2022-10-26T16:42:24.067Z,8.60
2022-10-26T16:44:57.603Z,8.80
2022-10-26T16:47:31.685Z,8.80
2022-10-26T16:50:02.800Z,8.70
2022-10-26T16:52:34.320Z,8.60
2022-10-26T16:55:06.858Z,8.60
2022-10-26T16:57:41.498Z,8.70
2022-10-26T17:00:13.914Z,8.70
2022-10-26T17:02:44.959Z,8.80
2022-10-26T17:05:16.073Z,8.80
2022-10-26T17:07:47.197Z,8.90
2022-10-26T17:10:18.014Z,8.90
2022-10-26T17:12:52.221Z,9.00
2022-10-26T17:15:28.467Z,9.00
2022-10-26T17:17:59.961Z,9.10
2022-10-26T17:20:31.277Z,9.20
2022-10-26T17:23:02.540Z,9.20
2022-10-26T17:25:37.558Z,9.40
2022-10-26T17:28:11.578Z,9.30
2022-10-26T17:30:43.401Z,9.20
2022-10-26T17:33:14.956Z,9.30
2022-10-26T17:35:46.066Z,9.30
2022-10-26T17:38:17.228Z,9.30
2022-10-26T17:40:48.898Z,9.40
2022-10-26T17:43:21.930Z,9.30
2022-10-26T17:45:52.789Z,9.20
2022-10-26T17:48:23.664Z,9.30
2022-10-26T17:50:55.837Z,9.30
2022-10-26T17:53:27.434Z,9.20
2022-10-26T17:56:05.099Z,9.20
2022-10-26T17:58:39.267Z,9.30
2022-10-26T18:01:12.673Z,9.20
2022-10-26T18:03:45.146Z,9.40
2022-10-26T18:06:18.945Z,9.50
2022-10-26T18:08:50.118Z,9.50
2022-10-26T18:11:26.431Z,9.50
2022-10-26T18:14:00.828Z,9.60
2022-10-26T18:16:32.288Z,9.70
2022-10-26T18:19:05.318Z,9.70
2022-10-26T18:21:38.897Z,9.50
2022-10-26T18:24:14.294Z,9.40
2022-10-26T18:26:45.347Z,9.20
2022-10-26T18:29:20.051Z,9.30
2022-10-26T18:31:51.580Z,9.40
2022-10-26T18:34:23.489Z,9.60
2022-10-26T18:36:54.571Z,9.80
2022-10-26T18:39:26.120Z,9.60
2022-10-26T18:41:57.216Z,9.50
2022-10-26T18:44:30.750Z,9.50
2022-10-26T18:47:01.842Z,9.70
2022-10-26T18:49:32.892Z,9.70
2022-10-26T18:52:03.977Z,9.70
2022-10-26T18:54:34.968Z,9.70
2022-10-26T18:57:06.081Z,9.70
2022-10-26T18:59:38.562Z,9.70
2022-10-26T19:02:09.913Z,9.50
2022-10-26T19:04:40.968Z,9.60
2022-10-26T19:07:12.104Z,9.50
2022-10-26T19:09:42.629Z,9.40
2022-10-26T19:12:13.650Z,9.40
2022-10-26T19:14:46.618Z,9.40
2022-10-26T19:17:17.609Z,9.60
2022-10-26T19:19:48.660Z,9.60
2022-10-26T19:22:19.701Z,9.60
2022-10-26T19:24:50.786Z,9.70
2022-10-26T19:27:21.492Z,9.80
2022-10-26T19:29:54.385Z,9.90
2022-10-26T19:32:25.603Z,10.00
2022-10-26T19:34:56.757Z,9.90
2022-10-26T19:37:28.616Z,10.00
2022-10-26T19:39:59.661Z,10.10
2022-10-26T19:42:34.411Z,10.20
2022-10-26T19:45:07.864Z,10.20
2022-10-26T19:47:39.563Z,10.10
2022-10-26T19:50:11.209Z,10.20
2022-10-26T19:52:42.811Z,10.30
2022-10-26T19:55:14.105Z,10.40
2022-10-26T19:57:47.390Z,10.60
2022-10-26T20:00:23.136Z,10.40
2022-10-26T20:02:54.378Z,10.60
2022-10-26T20:05:28.525Z,10.60
2022-10-26T20:07:59.643Z,10.70
2022-10-26T20:10:30.678Z,10.80
2022-10-26T20:13:02.151Z,10.90
2022-10-26T20:15:35.363Z,10.90
2022-10-26T20:18:06.819Z,11.00
2022-10-26T20:20:41.216Z,11.20
2022-10-26T20:23:13.793Z,10.90
2022-10-26T20:25:50.219Z,10.80
2022-10-26T20:28:22.253Z,10.90
2022-10-26T20:30:55.477Z,11.00
2022-10-26T20:33:26.506Z,11.10
2022-10-26T20:36:01.716Z,11.00
2022-10-26T20:38:33.393Z,11.00
2022-10-26T20:41:07.908Z,10.90
2022-10-26T20:43:44.408Z,10.90
2022-10-26T20:46:25.332Z,11.10
2022-10-26T20:48:57.805Z,11.00
2022-10-26T20:51:56.661Z,11.00
2022-10-26T20:54:41.325Z,10.90
2022-10-26T20:57:17.568Z,11.00
2022-10-26T20:59:50.865Z,11.00
2022-10-26T21:02:24.473Z,10.90
2022-10-26T21:04:55.496Z,10.90
2022-10-26T21:07:26.513Z,10.90
2022-10-26T21:09:57.789Z,10.70
2022-10-26T21:12:28.836Z,10.90
2022-10-26T21:15:00.741Z,10.90
2022-10-26T21:17:36.554Z,11.10
2022-10-26T21:20:07.797Z,11.10
2022-10-26T21:22:38.851Z,11.10
2022-10-26T21:25:11.101Z,11.20
2022-10-26T21:27:42.141Z,11.20
2022-10-26T21:30:14.504Z,11.50
2022-10-26T21:32:47.983Z,11.60
2022-10-26T21:35:19.192Z,11.70
2022-10-26T21:37:51.545Z,11.60
2022-10-26T21:40:23.266Z,11.50
2022-10-26T21:42:55.429Z,11.50
2022-10-26T21:45:26.428Z,11.70
2022-10-26T21:47:59.445Z,11.80
2022-10-26T21:50:30.483Z,12.00
2022-10-26T21:53:01.997Z,12.00
2022-10-26T21:55:33.272Z,11.70
2022-10-26T21:58:04.707Z,11.80
2022-10-26T22:00:35.616Z,11.80
2022-10-26T22:03:08.713Z,11.70
2022-10-26T22:05:43.660Z,11.50
2022-10-26T22:08:16.873Z,11.50
2022-10-26T22:10:47.945Z,11.40
2022-10-26T22:13:18.747Z,11.20
2022-10-26T22:15:49.738Z,11.00
2022-10-26T22:18:23.159Z,11.00
2022-10-26T22:21:00.233Z,11.10
2022-10-26T22:23:31.520Z,11.20
2022-10-26T22:26:06.021Z,11.20
2022-10-26T22:28:41.699Z,11.10
2022-10-26T22:31:16.972Z,11.00
2022-10-26T22:33:54.644Z,10.90
2022-10-26T22:36:26.157Z,10.90
2022-10-26T22:38:57.597Z,10.90
2022-10-26T22:41:28.666Z,10.90
2022-10-26T22:43:59.337Z,11.00
2022-10-26T22:46:31.244Z,10.90
2022-10-26T22:49:05.376Z,11.00
2022-10-26T22:51:37.601Z,11.00
2022-10-26T22:54:09.402Z,11.00
2022-10-26T22:56:42.673Z,11.10
2022-10-26T22:59:14.050Z,11.00
2022-10-26T23:01:46.389Z,11.10
2022-10-26T23:04:20.624Z,11.20
2022-10-26T23:06:51.684Z,11.10
2022-10-26T23:09:23.668Z,10.90
2022-10-26T23:11:55.289Z,11.00
2022-10-26T23:14:26.553Z,10.90
2022-10-26T23:16:57.571Z,10.90
2022-10-26T23:19:30.405Z,10.70
2022-10-26T23:22:01.669Z,10.70
2022-10-26T23:24:32.643Z,10.60
2022-10-26T23:27:04.154Z,10.60
2022-10-26T23:29:35.060Z,10.60
2022-10-26T23:32:06.294Z,10.50
2022-10-26T23:34:39.362Z,10.60
2022-10-26T23:37:10.439Z,10.60
2022-10-26T23:39:41.442Z,10.60
2022-10-26T23:42:12.350Z,10.60
2022-10-26T23:44:43.269Z,10.70
2022-10-26T23:47:14.145Z,10.70
2022-10-26T23:49:47.036Z,10.70
2022-10-26T23:52:18.113Z,10.60
2022-10-26T23:57:25.300Z,10.60
2022-10-26T23:59:56.720Z,10.60
